Time;durP1;ratioP1;P1;durP2;ratioP2;P2;SDS_P1;SDS_P2;PMS_P1;PMS_P2;Temp;Humidity;BMP_temperature;BMP_pressure;BME280_temperature;BME280_humidity;BME280_pressure;Samples;Min_cycle;Max_cycle;Signal;HPM_P1;HPM_P2
2022/07/26 00:01:03;;;;;;;9.85;8.15;;;26.60;57.70;;;;;;5029470;28;20029;-64
2022/07/26 00:03:28;;;;;;;8.45;7.70;;;26.60;57.90;;;;;;4997616;28;20411;-64
2022/07/26 00:05:54;;;;;;;12.07;7.90;;;26.60;58.00;;;;;;5008393;28;20091;-64
2022/07/26 00:08:19;;;;;;;9.02;7.30;;;26.60;58.00;;;;;;5028942;28;20032;-64
2022/07/26 00:10:47;;;;;;;7.57;6.72;;;26.50;58.00;;;;;;5048424;28;20024;-63
2022/07/26 00:13:13;;;;;;;10.27;7.05;;;26.50;58.20;;;;;;5000870;28;20033;-64
2022/07/26 00:15:38;;;;;;;8.25;7.25;;;26.50;58.00;;;;;;5006740;28;20088;-64
2022/07/26 00:18:04;;;;;;;11.48;7.85;;;26.60;58.30;;;;;;5016975;28;20033;-64
2022/07/26 00:20:30;;;;;;;9.52;7.22;;;26.60;58.40;;;;;;5029158;28;20033;-64
2022/07/26 00:22:55;;;;;;;8.43;6.03;;;26.60;58.40;;;;;;5041486;28;20132;-64
2022/07/26 00:25:21;;;;;;;8.32;7.20;;;26.50;58.60;;;;;;5027491;28;20185;-64
2022/07/26 00:27:47;;;;;;;8.15;7.13;;;26.50;58.60;;;;;;5029273;28;20029;-64
2022/07/26 00:30:13;;;;;;;7.15;6.45;;;26.60;58.70;;;;;;5046586;28;20032;-64
2022/07/26 00:32:38;;;;;;;7.85;6.88;;;26.60;58.70;;;;;;5045644;28;20036;-64
2022/07/26 00:35:04;;;;;;;7.85;6.75;;;26.50;58.70;;;;;;5025450;28;20030;-64
2022/07/26 00:37:29;;;;;;;9.45;6.32;;;26.60;58.80;;;;;;5026760;28;20064;-64
2022/07/26 00:39:55;;;;;;;7.50;6.60;;;26.50;58.80;;;;;;5045958;28;20239;-64
2022/07/26 00:42:20;;;;;;;6.85;6.25;;;26.60;58.90;;;;;;5028416;28;20021;-64
2022/07/26 00:44:46;;;;;;;8.18;6.47;;;26.50;58.80;;;;;;5028754;28;20029;-64
2022/07/26 00:47:12;;;;;;;7.53;6.13;;;26.50;59.00;;;;;;5025262;28;20029;-64
2022/07/26 00:49:38;;;;;;;9.75;6.32;;;26.50;59.00;;;;;;5028668;28;20020;-65
2022/07/26 00:52:04;;;;;;;8.88;6.28;;;26.60;59.10;;;;;;5031513;28;20086;-64
2022/07/26 00:54:29;;;;;;;7.10;6.50;;;26.60;59.00;;;;;;5028481;28;20037;-64
2022/07/26 00:56:55;;;;;;;7.45;6.03;;;26.50;59.00;;;;;;5026937;28;20022;-65
2022/07/26 00:59:20;;;;;;;7.10;6.20;;;26.50;59.00;;;;;;5038178;28;20467;-64
2022/07/26 01:01:46;;;;;;;7.63;6.13;;;26.50;59.10;;;;;;5046241;28;20097;-64
2022/07/26 01:04:11;;;;;;;6.35;5.72;;;26.50;59.30;;;;;;5025076;28;20030;-65
2022/07/26 01:06:37;;;;;;;7.43;6.18;;;26.50;59.20;;;;;;5025284;28;20092;-64
2022/07/26 01:09:04;;;;;;;6.50;5.78;;;26.50;59.20;;;;;;5034402;28;20024;-64
2022/07/26 01:11:30;;;;;;;6.75;5.63;;;26.50;59.10;;;;;;5046050;28;20477;-64
2022/07/26 01:13:56;;;;;;;6.70;5.70;;;26.50;59.10;;;;;;5039355;28;20025;-64
2022/07/26 01:16:21;;;;;;;7.22;5.93;;;26.50;59.20;;;;;;5026150;28;20037;-64
2022/07/26 01:18:47;;;;;;;5.70;5.20;;;26.50;59.10;;;;;;5030515;28;20029;-64
2022/07/26 01:21:12;;;;;;;7.28;5.72;;;26.50;59.00;;;;;;5045579;28;20029;-65
2022/07/26 01:23:38;;;;;;;6.72;5.32;;;26.50;59.10;;;;;;5025654;28;20076;-64
2022/07/26 01:26:03;;;;;;;6.65;5.55;;;26.50;59.00;;;;;;5024983;28;20026;-64
2022/07/26 01:28:29;;;;;;;7.43;5.07;;;26.50;59.00;;;;;;5026838;28;20095;-63
2022/07/26 01:30:54;;;;;;;12.23;5.82;;;26.50;59.70;;;;;;5027932;28;20024;-64
2022/07/26 01:33:20;;;;;;;6.15;5.28;;;26.50;59.00;;;;;;4995148;28;20139;-64
2022/07/26 01:35:45;;;;;;;5.97;5.38;;;26.50;59.00;;;;;;5008025;28;20056;-64
2022/07/26 01:38:12;;;;;;;6.95;5.72;;;26.50;59.00;;;;;;5026455;28;20060;-64
2022/07/26 01:40:37;;;;;;;8.43;5.38;;;26.50;59.00;;;;;;5042643;28;20514;-64
2022/07/26 01:43:03;;;;;;;6.00;4.97;;;26.50;59.00;;;;;;5045736;28;20033;-64
2022/07/26 01:45:28;;;;;;;7.85;5.25;;;26.50;59.00;;;;;;5030465;28;20383;-64
2022/07/26 01:47:54;;;;;;;6.60;5.15;;;26.50;59.10;;;;;;5025953;28;20112;-64
2022/07/26 01:50:19;;;;;;;8.63;6.13;;;26.50;59.00;;;;;;5027322;28;20021;-64
2022/07/26 01:52:45;;;;;;;6.80;5.32;;;26.50;59.00;;;;;;5028050;28;20040;-64
2022/07/26 01:55:10;;;;;;;6.90;5.28;;;26.50;59.10;;;;;;5034588;28;20037;-64
2022/07/26 01:57:36;;;;;;;7.72;5.53;;;26.50;59.20;;;;;;5026172;28;20113;-64
2022/07/26 02:00:03;;;;;;;5.78;5.18;;;26.50;59.00;;;;;;5027420;28;20094;-64
2022/07/26 02:02:29;;;;;;;6.28;5.15;;;26.40;59.00;;;;;;5027892;28;20039;-64
2022/07/26 02:04:57;;;;;;;5.07;4.68;;;26.50;59.20;;;;;;5037482;28;20041;-63
2022/07/26 02:07:23;;;;;;;6.25;4.45;;;26.50;59.20;;;;;;5025873;28;20041;-64
2022/07/26 02:09:49;;;;;;;6.07;5.47;;;26.50;59.20;;;;;;5033032;28;20032;-64
2022/07/26 02:12:14;;;;;;;8.43;5.22;;;26.50;59.10;;;;;;5039525;28;20029;-65
2022/07/26 02:14:40;;;;;;;5.47;4.75;;;26.50;59.10;;;;;;5040916;28;20041;-63
2022/07/26 02:17:05;;;;;;;5.72;5.05;;;26.50;59.20;;;;;;5009876;28;20029;-64
2022/07/26 02:19:31;;;;;;;5.97;5.15;;;26.40;59.10;;;;;;5012620;28;20121;-64
2022/07/26 02:21:56;;;;;;;6.32;5.15;;;26.40;59.10;;;;;;5031125;28;20033;-63
2022/07/26 02:24:22;;;;;;;4.90;4.38;;;26.50;59.20;;;;;;5014044;28;20481;-64
2022/07/26 02:26:48;;;;;;;4.95;4.45;;;26.40;59.10;;;;;;4995102;28;20037;-64
2022/07/26 02:29:13;;;;;;;6.38;5.35;;;26.40;59.20;;;;;;5028915;28;20091;-65
2022/07/26 02:31:39;;;;;;;5.07;4.45;;;26.50;59.30;;;;;;4998667;28;20398;-64
2022/07/26 02:34:04;;;;;;;5.50;4.88;;;26.50;59.30;;;;;;5048329;28;20036;-64
2022/07/26 02:36:30;;;;;;;5.68;5.07;;;26.40;59.30;;;;;;5031873;28;20056;-65
2022/07/26 02:38:55;;;;;;;6.95;5.50;;;26.40;59.40;;;;;;5028529;28;20607;-64
2022/07/26 02:41:21;;;;;;;5.75;5.15;;;26.40;59.40;;;;;;5043336;28;20314;-64
2022/07/26 02:43:46;;;;;;;5.55;4.55;;;26.40;59.50;;;;;;5048485;28;20021;-64
2022/07/26 02:46:12;;;;;;;6.55;5.53;;;26.40;59.40;;;;;;5011205;28;20029;-64
2022/07/26 02:48:37;;;;;;;5.68;5.10;;;26.40;59.50;;;;;;5026872;28;20374;-64
2022/07/26 02:51:03;;;;;;;6.30;5.25;;;26.40;59.60;;;;;;5039588;28;20040;-64
2022/07/26 02:53:28;;;;;;;5.72;5.28;;;26.40;59.70;;;;;;5048618;28;20025;-64
2022/07/26 02:55:54;;;;;;;5.85;5.25;;;26.40;59.60;;;;;;5038990;28;20104;-64
2022/07/26 02:58:20;;;;;;;5.28;4.50;;;26.40;59.60;;;;;;5028482;28;20030;-64
2022/07/26 03:00:45;;;;;;;6.22;5.07;;;26.40;59.70;;;;;;5030093;28;20029;-64
2022/07/26 03:03:12;;;;;;;5.40;4.90;;;26.40;59.70;;;;;;5014425;28;20029;-64
2022/07/26 03:05:38;;;;;;;5.85;4.95;;;26.40;59.70;;;;;;5042331;28;20033;-64
2022/07/26 03:08:04;;;;;;;6.65;5.40;;;26.40;59.70;;;;;;5028664;28;20401;-64
2022/07/26 03:10:29;;;;;;;7.07;5.43;;;26.40;59.70;;;;;;5032045;28;20198;-64
2022/07/26 03:12:55;;;;;;;5.35;4.70;;;26.30;59.60;;;;;;5048060;28;20040;-64
2022/07/26 03:15:20;;;;;;;5.25;4.75;;;26.30;59.60;;;;;;5045990;28;20021;-63
2022/07/26 03:17:46;;;;;;;5.35;4.85;;;26.40;59.70;;;;;;5028190;28;20049;-64
2022/07/26 03:20:12;;;;;;;6.75;4.43;;;26.40;59.70;;;;;;5028351;28;20026;-64
2022/07/26 03:22:37;;;;;;;5.35;4.55;;;26.30;59.60;;;;;;5012465;28;20596;-64
2022/07/26 03:25:03;;;;;;;9.02;5.40;;;26.30;59.60;;;;;;5047798;28;20497;-64
2022/07/26 03:27:29;;;;;;;5.18;4.65;;;26.30;59.60;;;;;;5026159;28;20493;-64
2022/07/26 03:29:54;;;;;;;5.60;5.00;;;26.30;59.60;;;;;;5010089;28;20029;-64
2022/07/26 03:32:20;;;;;;;5.53;5.03;;;26.30;59.60;;;;;;5032128;28;20037;-64
2022/07/26 03:34:45;;;;;;;6.30;4.65;;;26.30;59.60;;;;;;5027361;28;20033;-64
2022/07/26 03:37:11;;;;;;;6.30;4.60;;;26.30;59.60;;;;;;5027446;28;20104;-64
2022/07/26 03:39:37;;;;;;;5.68;5.15;;;26.30;59.60;;;;;;5026220;28;20032;-64
2022/07/26 03:42:02;;;;;;;9.07;5.43;;;26.30;59.50;;;;;;5039785;28;20029;-64
2022/07/26 03:44:28;;;;;;;5.82;5.10;;;26.30;59.50;;;;;;5047527;28;20090;-63
2022/07/26 03:46:53;;;;;;;5.35;4.85;;;26.30;59.50;;;;;;5026331;28;20079;-63
2022/07/26 03:49:19;;;;;;;5.63;5.13;;;26.30;59.50;;;;;;5027274;28;20567;-64
2022/07/26 03:51:45;;;;;;;6.55;4.85;;;26.20;59.40;;;;;;5035990;28;20021;-64
2022/07/26 03:54:10;;;;;;;5.75;5.25;;;26.30;59.40;;;;;;5047403;28;20029;-64
2022/07/26 03:56:36;;;;;;;5.53;5.03;;;26.20;59.30;;;;;;5040604;28;20022;-64
2022/07/26 03:59:04;;;;;;;7.07;5.13;;;26.30;59.40;;;;;;5027171;28;20025;-64
2022/07/26 04:01:29;;;;;;;5.90;4.88;;;26.30;59.40;;;;;;5032327;28;20025;-64
2022/07/26 04:03:55;;;;;;;5.68;5.18;;;26.20;59.30;;;;;;5044816;28;20547;-64
2022/07/26 04:06:20;;;;;;;6.32;5.18;;;26.20;59.30;;;;;;5010758;28;20037;-64
2022/07/26 04:08:46;;;;;;;5.57;4.78;;;26.20;59.30;;;;;;5029135;28;20017;-64
2022/07/26 04:11:11;;;;;;;5.93;4.68;;;26.30;59.30;;;;;;5010140;28;20025;-64
2022/07/26 04:13:37;;;;;;;5.70;5.20;;;26.20;59.20;;;;;;5027203;28;20025;-64
2022/07/26 04:16:03;;;;;;;7.05;4.82;;;26.20;59.20;;;;;;5009234;28;20494;-64
2022/07/26 04:18:28;;;;;;;7.20;5.55;;;26.20;59.20;;;;;;5045816;28;20044;-63
2022/07/26 04:20:54;;;;;;;5.78;5.22;;;26.20;59.10;;;;;;5046837;28;20037;-65
2022/07/26 04:23:19;;;;;;;5.57;5.07;;;26.20;59.00;;;;;;5029586;28;20440;-64
2022/07/26 04:25:45;;;;;;;7.90;5.03;;;26.20;59.00;;;;;;5025739;28;20033;-64
2022/07/26 04:28:10;;;;;;;5.18;4.68;;;26.20;58.90;;;;;;5042262;28;20653;-64
2022/07/26 04:30:36;;;;;;;5.05;4.55;;;26.20;58.90;;;;;;5028359;28;20079;-64
2022/07/26 04:33:02;;;;;;;5.43;4.85;;;26.20;58.80;;;;;;5025072;28;20079;-64
2022/07/26 04:35:28;;;;;;;5.00;4.50;;;26.20;58.80;;;;;;4992579;28;20033;-64
2022/07/26 04:37:53;;;;;;;7.32;4.78;;;26.20;58.80;;;;;;5029392;28;20559;-64
2022/07/26 04:40:19;;;;;;;7.47;4.72;;;26.20;58.80;;;;;;5046940;28;20029;-64
2022/07/26 04:42:45;;;;;;;5.50;4.25;;;26.20;58.70;;;;;;5037427;28;20456;-64
2022/07/26 04:45:11;;;;;;;5.38;4.75;;;26.20;58.70;;;;;;5026018;28;20034;-64
2022/07/26 04:47:40;;;;;;;6.15;4.30;;;26.20;58.70;;;;;;5029646;28;20033;-64
2022/07/26 04:50:06;;;;;;;5.10;4.30;;;26.10;58.70;;;;;;5028274;28;20497;-65
2022/07/26 04:52:31;;;;;;;5.00;4.32;;;26.20;58.80;;;;;;5040044;28;20044;-64
2022/07/26 04:54:56;;;;;;;5.57;4.68;;;26.20;58.80;;;;;;5026310;28;20053;-64
2022/07/26 04:57:22;;;;;;;6.82;4.40;;;26.10;58.70;;;;;;5030812;28;20017;-64
2022/07/26 04:59:47;;;;;;;4.40;4.00;;;26.20;58.80;;;;;;5028081;28;20110;-63
2022/07/26 05:02:14;;;;;;;6.78;4.65;;;26.20;58.80;;;;;;5025930;28;20033;-64
2022/07/26 05:04:41;;;;;;;6.43;4.78;;;26.20;58.80;;;;;;5026503;28;20122;-63
2022/07/26 05:07:06;;;;;;;6.00;4.25;;;26.20;58.80;;;;;;5027066;28;20037;-64
2022/07/26 05:09:32;;;;;;;4.90;4.28;;;26.10;58.80;;;;;;5045816;28;20117;-64
2022/07/26 05:11:57;;;;;;;5.22;4.70;;;26.10;58.70;;;;;;5028186;28;20036;-64
2022/07/26 05:14:22;;;;;;;6.53;4.20;;;26.20;58.80;;;;;;5045900;28;20036;-64
2022/07/26 05:16:48;;;;;;;5.30;4.55;;;26.10;58.80;;;;;;5045733;28;20029;-64
2022/07/26 05:19:14;;;;;;;4.93;4.13;;;26.10;58.80;;;;;;5024532;28;20083;-64
2022/07/26 05:21:39;;;;;;;5.32;4.55;;;26.10;58.80;;;;;;5025382;28;20029;-64
2022/07/26 05:24:05;;;;;;;4.68;3.80;;;26.10;58.60;;;;;;5040739;28;20021;-64
2022/07/26 05:26:30;;;;;;;5.60;3.72;;;26.10;58.50;;;;;;5045421;28;20021;-64
2022/07/26 05:28:56;;;;;;;5.57;3.80;;;26.10;58.40;;;;;;5032705;28;20076;-64
2022/07/26 05:31:21;;;;;;;5.32;4.10;;;26.10;58.30;;;;;;5026079;28;20025;-64
2022/07/26 05:33:47;;;;;;;4.18;3.40;;;26.10;58.20;;;;;;5037370;28;20087;-64
2022/07/26 05:36:12;;;;;;;4.60;3.80;;;26.10;58.10;;;;;;5045881;28;20033;-64
2022/07/26 05:38:38;;;;;;;5.40;3.30;;;26.10;58.00;;;;;;5036347;28;20022;-64
2022/07/26 05:41:03;;;;;;;5.45;3.35;;;26.10;57.90;;;;;;5025917;28;20060;-64
2022/07/26 05:43:30;;;;;;;4.72;3.83;;;26.00;57.80;;;;;;5027968;28;20040;-64
2022/07/26 05:45:56;;;;;;;5.30;3.58;;;26.00;57.70;;;;;;5031038;28;20036;-64
2022/07/26 05:48:21;;;;;;;4.32;3.08;;;26.10;57.70;;;;;;5044087;28;20108;-64
2022/07/26 05:50:47;;;;;;;4.55;3.08;;;26.00;57.60;;;;;;5028651;28;20034;-64
2022/07/26 05:53:12;;;;;;;4.10;3.33;;;26.00;57.50;;;;;;5032531;28;20448;-64
2022/07/26 05:55:38;;;;;;;5.22;3.10;;;26.00;57.40;;;;;;5049814;28;20120;-64
2022/07/26 05:58:03;;;;;;;5.30;2.90;;;26.00;57.40;;;;;;5047689;28;20039;-64
2022/07/26 06:00:29;;;;;;;5.20;3.05;;;26.00;57.40;;;;;;5029524;28;20044;-64
2022/07/26 06:02:54;;;;;;;5.55;3.85;;;26.00;57.30;;;;;;5029565;28;20521;-64
2022/07/26 06:05:20;;;;;;;5.90;3.10;;;26.00;57.30;;;;;;5049066;28;20078;-64
2022/07/26 06:07:45;;;;;;;5.13;2.80;;;26.00;57.20;;;;;;5031396;28;20044;-64
2022/07/26 06:10:11;;;;;;;6.20;2.97;;;26.00;57.20;;;;;;5027909;28;20486;-64
2022/07/26 06:12:36;;;;;;;6.68;2.75;;;26.00;57.20;;;;;;5029523;28;20517;-64
2022/07/26 06:15:02;;;;;;;3.35;2.97;;;26.00;57.20;;;;;;5021280;28;20044;-64
2022/07/26 06:17:28;;;;;;;5.25;2.85;;;26.00;57.20;;;;;;5048707;28;20037;-64
2022/07/26 06:19:57;;;;;;;5.32;2.88;;;26.00;57.10;;;;;;5027856;28;20026;-64
2022/07/26 06:22:23;;;;;;;3.95;2.85;;;26.00;57.10;;;;;;5029402;28;20094;-64
2022/07/26 06:24:48;;;;;;;5.10;3.05;;;25.90;57.10;;;;;;5042254;28;20070;-64
2022/07/26 06:27:14;;;;;;;4.68;2.67;;;26.00;57.10;;;;;;5031204;28;20051;-64
2022/07/26 06:29:39;;;;;;;4.50;2.92;;;25.90;56.90;;;;;;5037227;28;20268;-64
2022/07/26 06:32:05;;;;;;;8.00;2.85;;;26.00;56.80;;;;;;5027768;28;20041;-64
2022/07/26 06:34:31;;;;;;;5.15;3.33;;;26.00;56.70;;;;;;5037711;28;20064;-64
2022/07/26 06:36:56;;;;;;;4.07;2.60;;;25.90;56.60;;;;;;5030888;28;20021;-64
2022/07/26 06:39:22;;;;;;;5.30;3.05;;;25.90;56.50;;;;;;5010779;28;20018;-64
2022/07/26 06:41:47;;;;;;;4.43;2.63;;;26.00;56.50;;;;;;5027755;28;20018;-64
2022/07/26 06:44:13;;;;;;;5.10;3.10;;;25.90;56.30;;;;;;4998326;28;20021;-64
2022/07/26 06:46:38;;;;;;;4.13;2.75;;;25.90;56.30;;;;;;5048329;28;20543;-64
2022/07/26 06:49:04;;;;;;;3.65;2.33;;;25.90;56.20;;;;;;5027037;28;20030;-64
2022/07/26 06:51:29;;;;;;;8.00;2.40;;;26.00;56.20;;;;;;5028483;28;20029;-64
2022/07/26 06:53:55;;;;;;;2.92;2.58;;;25.90;56.00;;;;;;5029714;28;20017;-64
2022/07/26 06:56:20;;;;;;;3.45;2.85;;;25.90;56.10;;;;;;5030166;28;20390;-64
2022/07/26 06:58:46;;;;;;;4.78;2.47;;;25.90;56.00;;;;;;5030039;28;20112;-64
2022/07/26 07:01:11;;;;;;;3.95;2.47;;;25.90;55.80;;;;;;4991655;28;20083;-64
2022/07/26 07:03:37;;;;;;;3.30;2.08;;;25.90;55.80;;;;;;5007848;28;20354;-64
2022/07/26 07:06:02;;;;;;;2.78;1.95;;;25.90;55.80;;;;;;5042507;28;20041;-64
2022/07/26 07:08:28;;;;;;;3.13;2.38;;;25.90;55.70;;;;;;5029138;28;20033;-63
2022/07/26 07:10:55;;;;;;;4.32;2.33;;;25.90;55.70;;;;;;5032435;28;20054;-64
2022/07/26 07:13:21;;;;;;;3.40;2.30;;;25.90;55.50;;;;;;5026525;28;20056;-64
2022/07/26 07:15:46;;;;;;;3.88;2.10;;;25.90;55.30;;;;;;5029655;28;20060;-64
2022/07/26 07:18:11;;;;;;;4.18;2.20;;;25.90;55.40;;;;;;5013978;28;20021;-64
2022/07/26 07:20:39;;;;;;;2.88;1.70;;;25.90;55.30;;;;;;5035900;28;20034;-64
2022/07/26 07:23:04;;;;;;;3.97;2.00;;;25.90;55.10;;;;;;5026795;28;20103;-63
2022/07/26 07:25:30;;;;;;;3.47;1.60;;;25.90;54.80;;;;;;5037841;28;20029;-64
2022/07/26 07:27:55;;;;;;;2.22;1.70;;;25.90;54.40;;;;;;5047181;28;20060;-64
2022/07/26 07:30:20;;;;;;;3.78;2.10;;;25.90;54.20;;;;;;5039195;28;20037;-64
2022/07/26 07:32:46;;;;;;;3.25;2.08;;;25.80;53.90;;;;;;5028178;28;20021;-64
2022/07/26 07:35:11;;;;;;;5.25;2.10;;;25.80;53.80;;;;;;5034523;28;20040;-64
2022/07/26 07:37:37;;;;;;;3.58;1.60;;;25.80;53.50;;;;;;5047420;28;20091;-64
2022/07/26 07:40:07;;;;;;;2.65;1.85;;;25.90;53.50;;;;;;5026313;28;20116;-64
2022/07/26 07:42:32;;;;;;;3.50;2.20;;;25.80;52.50;;;;;;5027421;28;20036;-64
2022/07/26 07:44:58;;;;;;;7.97;2.10;;;25.80;53.20;;;;;;5029436;28;20021;-64
2022/07/26 07:47:23;;;;;;;5.30;1.63;;;25.80;53.10;;;;;;5047461;28;20138;-64
2022/07/26 07:49:49;;;;;;;5.90;1.67;;;25.80;53.00;;;;;;5046271;28;20036;-63
2022/07/26 07:52:14;;;;;;;4.15;2.00;;;25.80;52.90;;;;;;5026895;28;20033;-64
2022/07/26 07:54:40;;;;;;;3.45;1.80;;;25.80;52.80;;;;;;5027873;28;20033;-63
2022/07/26 07:57:05;;;;;;;3.03;1.92;;;25.80;52.70;;;;;;5046283;28;20772;-64
2022/07/26 07:59:30;;;;;;;2.90;1.67;;;25.80;52.40;;;;;;5047198;28;20041;-64
2022/07/26 08:01:56;;;;;;;4.90;1.65;;;25.70;52.40;;;;;;5026280;28;20030;-64
2022/07/26 08:04:21;;;;;;;2.67;1.60;;;25.80;52.60;;;;;;5027543;28;20168;-64
2022/07/26 08:06:47;;;;;;;4.03;1.70;;;25.80;52.50;;;;;;5040874;28;20037;-64
2022/07/26 08:09:12;;;;;;;6.20;1.70;;;25.80;52.50;;;;;;5047060;28;20032;-64
2022/07/26 08:11:38;;;;;;;2.42;1.65;;;25.70;52.40;;;;;;5033508;28;20025;-64
2022/07/26 08:14:03;;;;;;;2.53;1.52;;;25.80;52.50;;;;;;5027133;28;20025;-64
2022/07/26 08:16:29;;;;;;;1.73;1.60;;;25.80;52.50;;;;;;5038067;28;20712;-64
2022/07/26 08:18:55;;;;;;;3.05;1.50;;;25.70;52.80;;;;;;5046572;28;20033;-64
2022/07/26 08:21:20;;;;;;;4.55;1.52;;;25.70;52.80;;;;;;5037548;28;20026;-64
2022/07/26 08:23:46;;;;;;;6.13;2.03;;;25.80;52.90;;;;;;5025827;28;20024;-64
2022/07/26 08:26:11;;;;;;;4.75;1.70;;;25.80;52.90;;;;;;5034465;28;20390;-64
2022/07/26 08:28:38;;;;;;;4.00;2.00;;;25.80;53.00;;;;;;5046187;28;20029;-63
2022/07/26 08:31:04;;;;;;;3.92;1.77;;;25.80;53.10;;;;;;5040778;28;20083;-64
2022/07/26 08:33:29;;;;;;;3.90;1.63;;;25.80;53.40;;;;;;5026658;28;20025;-64
2022/07/26 08:35:55;;;;;;;3.15;1.95;;;25.70;53.60;;;;;;5030470;28;20048;-64
2022/07/26 08:38:20;;;;;;;3.20;1.65;;;25.80;53.70;;;;;;5046204;28;20037;-64
2022/07/26 08:40:46;;;;;;;6.22;2.00;;;25.80;53.50;;;;;;5026413;28;20032;-64
2022/07/26 08:43:11;;;;;;;3.58;1.60;;;25.80;53.40;;;;;;5026001;28;20132;-63
2022/07/26 08:45:37;;;;;;;3.30;2.00;;;25.80;53.30;;;;;;5025490;28;20571;-64
2022/07/26 08:48:02;;;;;;;4.03;1.35;;;25.80;53.20;;;;;;5028586;28;20067;-64
2022/07/26 08:50:28;;;;;;;3.38;1.65;;;25.70;53.20;;;;;;5028177;28;20025;-63
2022/07/26 08:52:59;;;;;;;3.42;2.03;;;25.70;52.90;;;;;;5018233;28;20163;-64
2022/07/26 08:55:25;;;;;;;2.58;1.65;;;25.80;53.00;;;;;;5024985;28;20418;-64
2022/07/26 08:57:50;;;;;;;4.00;2.00;;;25.80;52.90;;;;;;5043283;28;20049;-64
2022/07/26 09:00:29;;;;;;;2.88;1.80;;;25.80;52.60;;;;;;5046029;28;20030;-64
2022/07/26 09:02:55;;;;;;;3.20;1.85;;;25.70;52.40;;;;;;5029503;28;20045;-64
2022/07/26 09:05:29;;;;;;;2.28;1.42;;;25.80;52.50;;;;;;5026417;28;20560;-64
2022/07/26 09:07:55;;;;;;;3.25;1.90;;;25.80;52.70;;;;;;5028463;28;20112;-63
2022/07/26 09:10:21;;;;;;;2.88;1.88;;;25.80;52.90;;;;;;5028695;28;20029;-65
2022/07/26 09:12:51;;;;;;;6.38;1.58;;;25.80;53.10;;;;;;5032384;28;20113;-64
2022/07/26 09:15:21;;;;;;;2.78;2.03;;;25.80;53.20;;;;;;5026798;28;20087;-63
2022/07/26 09:17:48;;;;;;;4.47;1.70;;;25.80;53.30;;;;;;5043623;28;20029;-64
2022/07/26 09:20:24;;;;;;;2.78;1.73;;;25.80;53.30;;;;;;5032605;28;20029;-64
2022/07/26 09:23:03;;;;;;;4.15;1.65;;;25.70;53.20;;;;;;5016203;28;20036;-64
2022/07/26 09:25:32;;;;;;;3.67;1.73;;;25.70;53.10;;;;;;5032892;28;20033;-63
2022/07/26 09:27:58;;;;;;;3.28;1.50;;;25.70;53.00;;;;;;5028850;28;20037;-64
2022/07/26 09:30:24;;;;;;;3.83;2.20;;;25.70;52.90;;;;;;5028789;28;20692;-64
2022/07/26 09:33:00;;;;;;;1.95;1.63;;;25.70;52.90;;;;;;5041799;28;20061;-63
2022/07/26 09:35:26;;;;;;;3.10;1.95;;;25.70;52.60;;;;;;5049854;28;20068;-64
2022/07/26 09:37:51;;;;;;;3.08;1.85;;;25.70;52.50;;;;;;5038606;28;20052;-64
2022/07/26 09:40:17;;;;;;;3.50;2.05;;;25.70;52.40;;;;;;5030181;28;20095;-64
2022/07/26 09:42:56;;;;;;;2.53;1.80;;;25.70;52.20;;;;;;5032681;28;20033;-64
2022/07/26 09:45:22;;;;;;;2.70;1.77;;;25.70;52.30;;;;;;5031919;28;20391;-63
2022/07/26 09:47:47;;;;;;;2.03;1.50;;;25.70;52.20;;;;;;5028666;28;20048;-63
2022/07/26 09:50:21;;;;;;;3.30;1.75;;;25.70;52.20;;;;;;5012939;28;20033;-64
2022/07/26 09:53:07;;;;;;;2.47;1.58;;;25.70;52.30;;;;;;5031833;28;20512;-65
2022/07/26 09:55:33;;;;;;;3.42;1.88;;;25.70;52.30;;;;;;5049689;28;20041;-64
2022/07/26 09:58:02;;;;;;;2.55;1.55;;;25.70;52.10;;;;;;5028276;28;20033;-64
2022/07/26 10:00:28;;;;;;;2.10;1.40;;;25.70;52.10;;;;;;5029300;28;20033;-63
2022/07/26 10:02:54;;;;;;;4.07;1.83;;;25.70;52.20;;;;;;5037759;28;20040;-63
2022/07/26 10:05:20;;;;;;;2.65;1.30;;;25.70;52.00;;;;;;5031336;28;20017;-63
2022/07/26 10:07:49;;;;;;;2.42;1.40;;;25.70;52.00;;;;;;5005671;28;20057;-64
2022/07/26 10:10:20;;;;;;;2.33;1.35;;;25.70;51.60;;;;;;4991645;28;20581;-64
2022/07/26 10:12:46;;;;;;;3.53;1.23;;;25.70;51.50;;;;;;5014961;28;20036;-64
2022/07/26 10:15:43;;;;;;;1.52;1.17;;;25.70;51.70;;;;;;5031167;28;20029;-64
2022/07/26 10:18:09;;;;;;;1.85;1.10;;;25.60;50.80;;;;;;5040476;28;20116;-64
2022/07/26 10:20:47;;;;;;;1.90;1.05;;;25.60;49.90;;;;;;5028941;28;20151;-64
2022/07/26 10:23:41;;;;;;;1.95;1.15;;;25.60;49.70;;;;;;5030271;28;20032;-64
2022/07/26 10:26:09;;;;;;;2.10;0.90;;;25.60;49.30;;;;;;5048534;28;20057;-64
2022/07/26 10:28:37;;;;;;;1.92;1.00;;;25.60;49.30;;;;;;5027193;28;20041;-63
2022/07/26 10:31:21;;;;;;;1.90;1.00;;;25.60;49.00;;;;;;5028439;28;20025;-64
2022/07/26 10:33:47;;;;;;;1.77;1.17;;;25.60;49.00;;;;;;5039542;28;20214;-64
2022/07/26 10:36:26;;;;;;;2.83;1.05;;;25.60;48.90;;;;;;5031125;28;20436;-64
2022/07/26 10:39:05;;;;;;;2.70;1.13;;;25.60;49.00;;;;;;5033896;28;20498;-64
2022/07/26 10:41:38;;;;;;;1.27;1.02;;;25.60;49.60;;;;;;5028573;28;20029;-63
2022/07/26 10:44:20;;;;;;;2.90;1.05;;;25.60;49.30;;;;;;5040681;28;20028;-64
2022/07/26 10:47:06;;;;;;;1.55;0.93;;;25.70;49.70;;;;;;5030761;28;20037;-64
2022/07/26 10:49:40;;;;;;;2.67;1.33;;;25.60;49.70;;;;;;5031997;28;20034;-64
2022/07/26 10:52:11;;;;;;;2.67;1.10;;;25.70;49.90;;;;;;5028360;28;20038;-64
2022/07/26 10:54:55;;;;;;;2.00;1.20;;;25.60;49.90;;;;;;5043774;28;20681;-64
2022/07/26 10:57:31;;;;;;;1.73;1.00;;;25.60;50.20;;;;;;5048147;28;20025;-64
2022/07/26 10:59:57;;;;;;;1.10;0.73;;;25.60;50.00;;;;;;5030194;28;20028;-64
2022/07/26 11:02:27;;;;;;;1.33;0.82;;;25.60;50.00;;;;;;5027898;28;20554;-64
2022/07/26 11:05:13;;;;;;;2.38;0.98;;;25.60;49.80;;;;;;5030309;28;20037;-64
2022/07/26 11:07:53;;;;;;;4.50;1.23;;;25.70;49.80;;;;;;5030314;28;20122;-64
2022/07/26 11:10:26;;;;;;;2.85;1.00;;;25.60;49.30;;;;;;5026286;28;20462;-63
2022/07/26 11:13:12;;;;;;;1.83;0.85;;;25.60;49.30;;;;;;5027078;28;20088;-64
2022/07/26 11:15:48;;;;;;;3.97;1.27;;;25.60;48.70;;;;;;5008320;28;20618;-64
2022/07/26 11:18:20;;;;;;;1.67;1.00;;;25.60;48.60;;;;;;4992348;28;20033;-64
2022/07/26 11:20:47;;;;;;;2.25;1.20;;;25.60;48.40;;;;;;5030508;28;20075;-64
2022/07/26 11:23:23;;;;;;;1.40;0.80;;;25.60;48.70;;;;;;5003988;28;20032;-64
2022/07/26 11:26:04;;;;;;;1.33;0.70;;;25.60;48.70;;;;;;5007782;28;20084;-64
2022/07/26 11:28:41;;;;;;;2.35;0.90;;;25.60;48.80;;;;;;5010627;28;20121;-63
2022/07/26 11:31:06;;;;;;;1.55;0.88;;;25.60;49.00;;;;;;5030012;28;20035;-64
2022/07/26 11:33:39;;;;;;;1.77;0.90;;;25.60;49.00;;;;;;5047118;28;20029;-64
2022/07/26 11:36:04;;;;;;;3.35;1.05;;;25.50;49.20;;;;;;5028184;28;20103;-64
2022/07/26 11:39:06;;;;;;;2.67;1.10;;;25.60;49.30;;;;;;5026638;28;20498;-64
2022/07/26 11:41:32;;;;;;;2.97;1.02;;;25.60;48.60;;;;;;4947067;28;20115;-64
2022/07/26 11:43:57;;;;;;;1.75;0.93;;;25.60;48.90;;;;;;5010432;28;20022;-64
2022/07/26 11:46:35;;;;;;;1.52;0.80;;;25.60;49.30;;;;;;5026408;28;20032;-64
2022/07/26 11:49:01;;;;;;;1.17;1.08;;;25.60;49.50;;;;;;5029008;28;20032;-64
2022/07/26 11:51:26;;;;;;;1.88;1.10;;;25.60;49.30;;;;;;5029807;28;20112;-64
2022/07/26 11:53:58;;;;;;;1.23;0.93;;;25.60;49.20;;;;;;5046384;28;20449;-64
2022/07/26 11:56:24;;;;;;;1.20;0.70;;;25.60;48.90;;;;;;5027310;28;20064;-64
2022/07/26 11:58:50;;;;;;;0.88;0.80;;;25.60;49.00;;;;;;5025601;28;20501;-64
2022/07/26 12:01:17;;;;;;;2.08;0.70;;;25.60;49.40;;;;;;4990171;28;20030;-64
2022/07/26 12:03:45;;;;;;;1.48;0.80;;;25.60;49.00;;;;;;4990240;28;20113;-64
2022/07/26 12:06:12;;;;;;;2.22;1.13;;;25.60;48.50;;;;;;5026042;28;20045;-63
2022/07/26 12:08:51;;;;;;;1.55;1.38;;;25.60;48.40;;;;;;5029237;28;20086;-64
2022/07/26 12:11:17;;;;;;;1.92;0.88;;;25.60;48.40;;;;;;5016338;28;20041;-64
2022/07/26 12:13:56;;;;;;;2.28;0.70;;;25.50;46.60;;;;;;5026148;28;20030;-64
2022/07/26 12:16:41;;;;;;;2.03;0.75;;;25.60;48.20;;;;;;5029824;28;20079;-63
2022/07/26 12:19:22;;;;;;;4.05;0.90;;;25.60;48.40;;;;;;5046716;28;20108;-63
2022/07/26 12:21:58;;;;;;;1.42;0.80;;;25.60;48.30;;;;;;4989388;28;20036;-64
2022/07/26 12:24:38;;;;;;;1.83;0.80;;;25.60;47.40;;;;;;4975392;28;20033;-64
2022/07/26 12:27:08;;;;;;;3.90;1.20;;;25.60;48.20;;;;;;5012982;28;20021;-64
2022/07/26 12:29:37;;;;;;;1.38;0.60;;;25.60;47.80;;;;;;5044634;28;20032;-64
2022/07/26 12:32:07;;;;;;;1.50;0.95;;;25.60;48.10;;;;;;5026765;28;20026;-64
2022/07/26 12:34:33;;;;;;;2.58;0.85;;;25.60;47.60;;;;;;5009587;28;20038;-63
2022/07/26 12:37:17;;;;;;;1.85;0.70;;;25.50;46.90;;;;;;5025531;28;20097;-63
2022/07/26 12:40:03;;;;;;;3.40;1.08;;;25.60;47.30;;;;;;5028465;28;20112;-63
2022/07/26 12:42:48;;;;;;;1.60;0.90;;;25.60;47.50;;;;;;5046110;28;20033;-64
2022/07/26 12:45:14;;;;;;;;;;;25.60;47.40;;;;;;5002178;28;20072;-64
2022/07/26 12:47:43;;;;;;;1.98;0.90;;;25.60;47.10;;;;;;5026533;28;19948;-64
2022/07/26 12:50:09;;;;;;;1.25;1.02;;;25.60;47.40;;;;;;5012088;28;20025;-64